Time;durP1;ratioP1;P1;durP2;ratioP2;P2;SDS_P1;SDS_P2;PMS_P1;PMS_P2;Temp;Humidity;BMP_temperature;BMP_pressure;BME280_temperature;BME280_humidity;BME280_pressure;Samples;Min_cycle;Max_cycle;Signal;HPM_P1;HPM_P2
2021/04/20 00:00:32;;;;;;;38.73;28.40;;;;;;;;;;5056751;28;20446;-68
2021/04/20 00:02:59;;;;;;;37.47;28.50;;;;;;;;;;5056699;28;20877;-69
2021/04/20 00:05:25;;;;;;;39.13;29.03;;;;;;;;;;5056383;28;20452;-69
2021/04/20 00:07:53;;;;;;;40.73;30.50;;;;;;;;;;5056593;28;20444;-69
2021/04/20 00:10:20;;;;;;;40.73;29.80;;;;;;;;;;5056578;28;20435;-69
2021/04/20 00:12:48;;;;;;;37.15;28.75;;;;;;;;;;5056108;28;20455;-69
2021/04/20 00:15:18;;;;;;;41.73;30.10;;;;;;;;;;5056104;28;20734;-69
2021/04/20 00:17:45;;;;;;;39.70;31.13;;;;;;;;;;5056545;28;20436;-69
2021/04/20 00:20:13;;;;;;;40.83;30.53;;;;;;;;;;5056080;28;20443;-69
2021/04/20 00:22:40;;;;;;;39.63;30.07;;;;;;;;;;5056276;28;20447;-69
2021/04/20 00:25:08;;;;;;;43.70;29.10;;;;;;;;;;5056283;28;20448;-69
2021/04/20 00:27:35;;;;;;;42.07;29.40;;;;;;;;;;5056301;28;20520;-68
2021/04/20 00:30:02;;;;;;;37.83;29.17;;;;;;;;;;5056618;28;20447;-68
2021/04/20 00:32:28;;;;;;;41.30;29.40;;;;;;;;;;5055816;28;20441;-68
2021/04/20 00:34:55;;;;;;;40.25;30.05;;;;;;;;;;5056378;28;20509;-69
2021/04/20 00:37:22;;;;;;;38.40;28.50;;;;;;;;;;5056056;28;20193;-69
2021/04/20 00:39:48;;;;;;;40.33;29.60;;;;;;;;;;5056039;28;20532;-69
2021/04/20 00:42:16;;;;;;;40.30;29.20;;;;;;;;;;5056117;28;20496;-69
2021/04/20 00:44:43;;;;;;;39.93;29.20;;;;;;;;;;5055590;28;20445;-69
2021/04/20 00:47:09;;;;;;;41.03;30.47;;;;;;;;;;5054855;28;20463;-69
2021/04/20 00:49:36;;;;;;;39.30;30.27;;;;;;;;;;5055835;28;20478;-68
2021/04/20 00:52:03;;;;;;;43.27;30.30;;;;;;;;;;5055785;28;20439;-68
2021/04/20 00:54:31;;;;;;;40.90;29.00;;;;;;;;;;5055442;28;20443;-68
2021/04/20 00:56:57;;;;;;;41.35;29.77;;;;;;;;;;5055601;28;20225;-68
2021/04/20 00:59:25;;;;;;;42.03;31.13;;;;;;;;;;5056141;28;20254;-68
2021/04/20 01:01:53;;;;;;;43.40;29.98;;;;;;;;;;5055618;28;20285;-68
2021/04/20 01:04:20;;;;;;;40.45;29.98;;;;;;;;;;5055165;28;20204;-68
2021/04/20 01:06:48;;;;;;;38.22;29.35;;;;;;;;;;5055227;28;20212;-68
2021/04/20 01:09:15;;;;;;;44.67;30.45;;;;;;;;;;5055188;28;20255;-68
2021/04/20 01:11:42;;;;;;;41.70;30.30;;;;;;;;;;5055722;28;20208;-68
2021/04/20 01:14:10;;;;;;;37.10;28.35;;;;;;;;;;5055395;28;20194;-69
2021/04/20 01:16:38;;;;;;;37.90;27.83;;;;;;;;;;5055326;28;20308;-68
2021/04/20 01:19:07;;;;;;;41.35;30.50;;;;;;;;;;5055340;28;20502;-68
2021/04/20 01:21:34;;;;;;;36.42;29.67;;;;;;;;;;5055156;28;20201;-69
2021/04/20 01:24:03;;;;;;;39.40;29.65;;;;;;;;;;5057078;28;20200;-69
2021/04/20 01:26:32;;;;;;;39.97;30.35;;;;;;;;;;5056452;28;20223;-69
2021/04/20 01:28:59;;;;;;;41.97;28.13;;;;;;;;;;5056211;28;20325;-69
2021/04/20 01:31:27;;;;;;;42.45;30.95;;;;;;;;;;5055325;28;20204;-68
2021/04/20 01:33:55;;;;;;;38.90;29.27;;;;;;;;;;5055009;28;20203;-69
2021/04/20 01:36:22;;;;;;;42.10;30.20;;;;;;;;;;5055400;28;20259;-69
2021/04/20 01:38:50;;;;;;;38.00;29.30;;;;;;;;;;5055025;28;20202;-68
2021/04/20 01:41:17;;;;;;;36.90;28.00;;;;;;;;;;5054644;28;20458;-68
2021/04/20 01:43:45;;;;;;;41.37;29.60;;;;;;;;;;5054844;28;20451;-68
2021/04/20 01:46:13;;;;;;;42.10;29.00;;;;;;;;;;5054470;28;20958;-69
2021/04/20 01:48:40;;;;;;;41.77;30.60;;;;;;;;;;5054583;28;20480;-68
2021/04/20 01:51:07;;;;;;;47.23;31.40;;;;;;;;;;5055494;28;20546;-69
2021/04/20 01:53:34;;;;;;;39.70;29.67;;;;;;;;;;5054868;28;20602;-68
2021/04/20 01:56:01;;;;;;;40.38;28.70;;;;;;;;;;5054453;28;20214;-69
2021/04/20 01:58:27;;;;;;;41.78;30.23;;;;;;;;;;5054407;28;20287;-69
2021/04/20 02:00:55;;;;;;;42.28;29.25;;;;;;;;;;5055025;28;20202;-69
2021/04/20 02:03:22;;;;;;;40.07;29.73;;;;;;;;;;5054547;28;20198;-69
2021/04/20 02:05:49;;;;;;;42.10;30.87;;;;;;;;;;5054433;28;20535;-69
2021/04/20 02:08:16;;;;;;;44.73;31.40;;;;;;;;;;5054367;28;20448;-69
2021/04/20 02:10:43;;;;;;;44.47;30.25;;;;;;;;;;5054324;28;20442;-69
2021/04/20 02:13:10;;;;;;;47.00;31.40;;;;;;;;;;5054564;28;20279;-68
2021/04/20 02:15:37;;;;;;;38.83;29.45;;;;;;;;;;5054131;28;20283;-68
2021/04/20 02:18:06;;;;;;;43.03;30.75;;;;;;;;;;5053845;28;20197;-68
2021/04/20 02:20:34;;;;;;;39.28;31.15;;;;;;;;;;5054459;28;20572;-68
2021/04/20 02:23:00;;;;;;;41.08;30.10;;;;;;;;;;5054647;28;20195;-69
2021/04/20 02:25:28;;;;;;;43.30;30.93;;;;;;;;;;5054092;28;20540;-69
2021/04/20 02:27:55;;;;;;;40.67;31.17;;;;;;;;;;5054391;28;20478;-69
2021/04/20 02:30:22;;;;;;;46.47;32.90;;;;;;;;;;5053933;28;20843;-69
2021/04/20 02:32:49;;;;;;;41.47;28.60;;;;;;;;;;5053643;28;20532;-68
2021/04/20 02:35:18;;;;;;;42.83;30.00;;;;;;;;;;5053510;28;20294;-69
2021/04/20 02:37:46;;;;;;;43.77;30.57;;;;;;;;;;5053897;28;20202;-69
2021/04/20 02:40:17;;;;;;;45.03;32.33;;;;;;;;;;5054212;28;20539;-69
2021/04/20 02:42:44;;;;;;;44.77;30.93;;;;;;;;;;5054231;28;20455;-69
2021/04/20 02:45:11;;;;;;;41.67;30.45;;;;;;;;;;5053960;28;20861;-69
2021/04/20 02:47:38;;;;;;;43.57;31.20;;;;;;;;;;5053891;28;20194;-69
2021/04/20 02:50:07;;;;;;;44.50;30.92;;;;;;;;;;5053942;28;20516;-68
2021/04/20 02:52:35;;;;;;;45.63;31.00;;;;;;;;;;5053351;28;20206;-69
2021/04/20 02:55:02;;;;;;;49.17;31.77;;;;;;;;;;5053707;28;20861;-69
2021/04/20 02:57:29;;;;;;;46.83;32.53;;;;;;;;;;5053222;28;20227;-69
2021/04/20 02:59:55;;;;;;;46.45;33.10;;;;;;;;;;5053616;28;20666;-68
2021/04/20 03:02:22;;;;;;;44.67;33.07;;;;;;;;;;5053543;28;20198;-69
2021/04/20 03:04:50;;;;;;;44.50;33.25;;;;;;;;;;5053203;28;20933;-69
2021/04/20 03:07:17;;;;;;;48.23;33.00;;;;;;;;;;5053477;28;20216;-69
2021/04/20 03:09:45;;;;;;;40.17;31.97;;;;;;;;;;5052655;28;20501;-69
2021/04/20 03:12:12;;;;;;;48.28;32.03;;;;;;;;;;5053436;28;20546;-69
2021/04/20 03:14:39;;;;;;;48.42;32.63;;;;;;;;;;5053103;28;20201;-68
2021/04/20 03:17:06;;;;;;;45.35;32.38;;;;;;;;;;5053334;28;20216;-69
2021/04/20 03:19:33;;;;;;;53.30;34.45;;;;;;;;;;5053356;28;20196;-68
2021/04/20 03:22:00;;;;;;;45.10;31.75;;;;;;;;;;5053362;28;20536;-68
2021/04/20 03:24:52;;;;;;;47.13;35.53;;;;;;;;;;5053015;28;20731;-69
2021/04/20 03:27:19;;;;;;;58.22;35.90;;;;;;;;;;5053368;28;20195;-69
2021/04/20 03:29:46;;;;;;;43.58;30.40;;;;;;;;;;5053506;28;20198;-69
2021/04/20 03:32:13;;;;;;;46.37;32.40;;;;;;;;;;5053562;28;20195;-69
2021/04/20 03:34:43;;;;;;;47.50;33.07;;;;;;;;;;5052907;28;20445;-69
2021/04/20 03:37:11;;;;;;;46.27;33.57;;;;;;;;;;5053449;28;20501;-69
2021/04/20 03:39:39;;;;;;;53.40;35.55;;;;;;;;;;5053431;28;20445;-69
2021/04/20 03:42:08;;;;;;;49.95;32.80;;;;;;;;;;5053246;28;20204;-69
2021/04/20 03:44:39;;;;;;;42.90;31.45;;;;;;;;;;5053159;28;20194;-70
2021/04/20 03:47:10;;;;;;;44.33;30.88;;;;;;;;;;5052843;28;20186;-70
2021/04/20 03:49:37;;;;;;;47.90;33.50;;;;;;;;;;5053427;28;20225;-69
2021/04/20 03:52:08;;;;;;;52.57;33.00;;;;;;;;;;5053880;28;20205;-69
2021/04/20 03:54:36;;;;;;;42.97;31.63;;;;;;;;;;5052825;28;20449;-69
2021/04/20 03:57:03;;;;;;;44.85;30.95;;;;;;;;;;5053340;28;20237;-69
2021/04/20 03:59:30;;;;;;;48.67;35.13;;;;;;;;;;5052803;28;20197;-69
2021/04/20 04:01:59;;;;;;;49.38;33.00;;;;;;;;;;5052949;28;20475;-69
2021/04/20 04:04:27;;;;;;;53.10;32.70;;;;;;;;;;5052951;28;20253;-68
2021/04/20 04:06:55;;;;;;;49.00;35.10;;;;;;;;;;5053745;28;20285;-69
2021/04/20 04:09:22;;;;;;;49.60;32.65;;;;;;;;;;5052659;28;20197;-68
2021/04/20 04:11:52;;;;;;;49.63;34.85;;;;;;;;;;5052670;28;20219;-69
2021/04/20 04:14:20;;;;;;;42.97;30.63;;;;;;;;;;5053067;28;20186;-68
2021/04/20 04:16:48;;;;;;;50.28;34.40;;;;;;;;;;5053184;28;20224;-69
2021/04/20 04:19:16;;;;;;;47.50;32.72;;;;;;;;;;5052539;28;20246;-70
2021/04/20 04:21:46;;;;;;;47.65;32.10;;;;;;;;;;5053061;28;20375;-69
2021/04/20 04:24:14;;;;;;;48.90;30.70;;;;;;;;;;5057084;28;20217;-69
2021/04/20 04:26:43;;;;;;;46.47;32.85;;;;;;;;;;5056800;28;20555;-69
2021/04/20 04:29:11;;;;;;;48.10;32.22;;;;;;;;;;5056231;28;20205;-69
2021/04/20 04:31:40;;;;;;;51.77;33.60;;;;;;;;;;5059297;28;20251;-70
2021/04/20 04:34:07;;;;;;;48.30;33.20;;;;;;;;;;5064678;28;20452;-68
2021/04/20 04:36:36;;;;;;;45.50;32.67;;;;;;;;;;5055411;28;20683;-69
2021/04/20 04:39:03;;;;;;;54.30;36.28;;;;;;;;;;5056674;28;20451;-69
2021/04/20 04:41:30;;;;;;;52.70;35.75;;;;;;;;;;5055790;28;20192;-70
2021/04/20 04:43:57;;;;;;;49.78;34.22;;;;;;;;;;5055697;28;20715;-70
2021/04/20 04:46:23;;;;;;;54.90;35.95;;;;;;;;;;5055594;28;20203;-68
2021/04/20 04:48:51;;;;;;;47.88;35.38;;;;;;;;;;5055486;28;20225;-71
2021/04/20 04:51:18;;;;;;;55.15;36.00;;;;;;;;;;5055612;28;20191;-70
2021/04/20 04:53:46;;;;;;;48.30;33.85;;;;;;;;;;5055478;28;20194;-68
2021/04/20 04:56:13;;;;;;;54.90;34.47;;;;;;;;;;5055342;28;20216;-69
2021/04/20 04:58:40;;;;;;;53.40;35.60;;;;;;;;;;5055320;28;20208;-68
2021/04/20 05:01:08;;;;;;;54.42;35.58;;;;;;;;;;5055321;28;20211;-68
2021/04/20 05:03:35;;;;;;;62.03;37.70;;;;;;;;;;5055273;28;20201;-69
2021/04/20 05:06:02;;;;;;;54.08;36.20;;;;;;;;;;5055425;28;20205;-69
2021/04/20 05:08:30;;;;;;;52.35;36.22;;;;;;;;;;5054919;28;20201;-69
2021/04/20 05:11:02;;;;;;;59.85;38.38;;;;;;;;;;5055371;28;20295;-70
2021/04/20 05:13:30;;;;;;;51.45;35.42;;;;;;;;;;5055147;28;20682;-69
2021/04/20 05:15:57;;;;;;;58.05;36.90;;;;;;;;;;5054992;28;20453;-69
2021/04/20 05:18:24;;;;;;;54.47;36.05;;;;;;;;;;5055677;28;20196;-70
2021/04/20 05:20:51;;;;;;;60.42;35.72;;;;;;;;;;5055692;28;20200;-70
2021/04/20 05:23:18;;;;;;;55.90;38.28;;;;;;;;;;5055301;28;20686;-69
2021/04/20 05:25:46;;;;;;;51.50;35.58;;;;;;;;;;5055200;28;20229;-67
2021/04/20 05:28:13;;;;;;;51.30;37.08;;;;;;;;;;5055151;28;20297;-69
2021/04/20 05:30:40;;;;;;;53.15;37.40;;;;;;;;;;5055079;28;20243;-69
2021/04/20 05:33:06;;;;;;;52.63;35.13;;;;;;;;;;5056298;28;20303;-68
2021/04/20 05:35:33;;;;;;;52.10;35.80;;;;;;;;;;5063306;28;20292;-70
2021/04/20 05:38:00;;;;;;;52.83;36.50;;;;;;;;;;5056182;28;20659;-69
2021/04/20 05:40:37;;;;;;;54.50;35.85;;;;;;;;;;5074516;28;20222;-69
2021/04/20 05:43:05;;;;;;;53.30;36.60;;;;;;;;;;5074372;28;20657;-69
2021/04/20 05:45:32;;;;;;;53.38;36.55;;;;;;;;;;5074586;28;20196;-69
2021/04/20 05:48:00;;;;;;;57.35;38.72;;;;;;;;;;5074644;28;20206;-68
2021/04/20 05:50:28;;;;;;;55.65;34.40;;;;;;;;;;5074721;28;20228;-67
2021/04/20 05:52:55;;;;;;;51.45;36.25;;;;;;;;;;5073960;28;20210;-73
2021/04/20 05:55:22;;;;;;;48.33;35.10;;;;;;;;;;5074520;28;20231;-68
2021/04/20 05:57:49;;;;;;;54.03;34.50;;;;;;;;;;5074478;28;20222;-67
2021/04/20 06:00:17;;;;;;;53.08;37.33;;;;;;;;;;5074174;28;20193;-67
2021/04/20 06:02:45;;;;;;;55.35;36.30;;;;;;;;;;5074769;28;20278;-67
2021/04/20 06:05:13;;;;;;;51.03;35.03;;;;;;;;;;5074196;28;20291;-67
2021/04/20 06:07:42;;;;;;;53.38;37.72;;;;;;;;;;5073866;28;20438;-68
2021/04/20 06:10:09;;;;;;;56.15;35.20;;;;;;;;;;5074162;28;20307;-68
2021/04/20 06:12:37;;;;;;;49.63;32.80;;;;;;;;;;5074414;28;20233;-68
2021/04/20 06:15:04;;;;;;;55.08;35.42;;;;;;;;;;5074082;28;20236;-67
2021/04/20 06:17:31;;;;;;;55.03;36.42;;;;;;;;;;5074022;28;20221;-67
2021/04/20 06:19:58;;;;;;;54.30;36.47;;;;;;;;;;5074106;28;20333;-67
2021/04/20 06:22:25;;;;;;;52.20;34.77;;;;;;;;;;5074519;28;20280;-67
2021/04/20 06:24:52;;;;;;;59.50;37.45;;;;;;;;;;5074003;28;20442;-68
2021/04/20 06:27:19;;;;;;;56.65;34.33;;;;;;;;;;5075472;28;20718;-68
2021/04/20 06:29:45;;;;;;;51.90;35.95;;;;;;;;;;5075392;28;20240;-68
2021/04/20 06:32:12;;;;;;;54.70;36.10;;;;;;;;;;5074964;28;20233;-68
2021/04/20 06:34:39;;;;;;;60.80;38.70;;;;;;;;;;5073914;28;20242;-68
2021/04/20 06:37:08;;;;;;;58.28;35.92;;;;;;;;;;5073425;28;20535;-67
2021/04/20 06:39:35;;;;;;;56.40;37.93;;;;;;;;;;5073988;28;20288;-68
2021/04/20 06:42:03;;;;;;;52.40;35.92;;;;;;;;;;5074180;28;20443;-67
2021/04/20 06:44:33;;;;;;;56.10;38.15;;;;;;;;;;5072908;28;20288;-68
2021/04/20 06:47:03;;;;;;;53.58;36.78;;;;;;;;;;5073217;28;20189;-68
2021/04/20 06:49:31;;;;;;;48.92;34.60;;;;;;;;;;5073270;28;20327;-68
2021/04/20 06:52:01;;;;;;;59.03;38.20;;;;;;;;;;5073222;28;20288;-67
2021/04/20 06:54:32;;;;;;;49.87;33.67;;;;;;;;;;5073695;28;20447;-67
2021/04/20 06:57:01;;;;;;;55.45;37.55;;;;;;;;;;5073632;28;20568;-67
2021/04/20 06:59:35;;;;;;;48.58;35.45;;;;;;;;;;5073066;28;20651;-67
2021/04/20 07:02:07;;;;;;;52.70;35.10;;;;;;;;;;5073215;28;20225;-68
2021/04/20 07:04:41;;;;;;;53.73;34.77;;;;;;;;;;5073640;28;20511;-67
2021/04/20 07:07:11;;;;;;;53.43;34.53;;;;;;;;;;5073084;28;20437;-68
2021/04/20 07:09:43;;;;;;;54.53;36.73;;;;;;;;;;5072985;28;20445;-67
2021/04/20 07:12:10;;;;;;;53.03;36.53;;;;;;;;;;5073131;28;20576;-67
2021/04/20 07:14:41;;;;;;;52.78;34.22;;;;;;;;;;5073697;28;20443;-67
2021/04/20 07:17:17;;;;;;;53.53;34.00;;;;;;;;;;5073409;28;20251;-67
2021/04/20 07:19:59;;;;;;;49.45;34.33;;;;;;;;;;5073093;28;20945;-67
2021/04/20 07:22:46;;;;;;;55.27;35.83;;;;;;;;;;5073723;28;20227;-67
2021/04/20 07:25:22;;;;;;;53.60;34.30;;;;;;;;;;5047772;28;20536;-68
2021/04/20 07:27:54;;;;;;;46.97;34.20;;;;;;;;;;5073193;28;20437;-68
2021/04/20 07:30:25;;;;;;;49.00;33.20;;;;;;;;;;5073156;28;20997;-68
2021/04/20 07:33:12;;;;;;;55.23;34.70;;;;;;;;;;5073739;28;20451;-68
2021/04/20 07:35:44;;;;;;;56.70;36.93;;;;;;;;;;5068415;28;20464;-67
2021/04/20 07:38:18;;;;;;;55.57;35.77;;;;;;;;;;5072868;28;20435;-66
2021/04/20 07:40:52;;;;;;;47.97;33.70;;;;;;;;;;5073096;28;20438;-67
2021/04/20 07:43:24;;;;;;;46.20;33.77;;;;;;;;;;5072740;28;20565;-67
2021/04/20 07:45:53;;;;;;;47.37;33.60;;;;;;;;;;5073416;28;20829;-67
2021/04/20 07:48:23;;;;;;;49.70;36.20;;;;;;;;;;5072450;28;20473;-68
2021/04/20 07:50:55;;;;;;;48.20;32.90;;;;;;;;;;5072734;28;20527;-68
2021/04/20 07:53:23;;;;;;;45.57;32.20;;;;;;;;;;5073355;28;20445;-67
2021/04/20 07:55:55;;;;;;;49.37;35.33;;;;;;;;;;5072726;28;20511;-68
2021/04/20 07:58:23;;;;;;;40.87;30.07;;;;;;;;;;5076665;28;20431;-68
2021/04/20 08:00:52;;;;;;;41.07;31.40;;;;;;;;;;5077268;28;20832;-67
2021/04/20 08:03:24;;;;;;;42.37;31.80;;;;;;;;;;5076617;28;20523;-68
2021/04/20 08:05:55;;;;;;;41.00;28.50;;;;;;;;;;5076567;28;20421;-67
2021/04/20 08:08:27;;;;;;;38.93;29.53;;;;;;;;;;5076779;28;20439;-68
2021/04/20 08:10:56;;;;;;;40.17;29.73;;;;;;;;;;5076146;28;20437;-68
2021/04/20 08:13:26;;;;;;;40.90;30.93;;;;;;;;;;5076153;28;20527;-68
2021/04/20 08:15:55;;;;;;;38.93;28.27;;;;;;;;;;5076674;28;20429;-68
2021/04/20 08:18:24;;;;;;;37.07;27.30;;;;;;;;;;5076079;28;20436;-68
2021/04/20 08:20:52;;;;;;;40.53;28.53;;;;;;;;;;5076316;28;20515;-68
2021/04/20 08:23:19;;;;;;;35.50;25.73;;;;;;;;;;5076435;28;20433;-68
2021/04/20 08:25:53;;;;;;;37.20;26.80;;;;;;;;;;5075964;28;20447;-68
2021/04/20 08:28:24;;;;;;;37.20;28.47;;;;;;;;;;5075771;28;20458;-67
2021/04/20 08:30:53;;;;;;;41.70;27.60;;;;;;;;;;5076746;28;20516;-67
2021/04/20 08:33:23;;;;;;;30.40;24.47;;;;;;;;;;5076173;28;20446;-67
2021/04/20 08:35:53;;;;;;;38.77;27.07;;;;;;;;;;5076267;28;20433;-67
2021/04/20 08:38:26;;;;;;;34.97;26.10;;;;;;;;;;5075938;28;20440;-67
2021/04/20 08:40:57;;;;;;;34.17;27.60;;;;;;;;;;5075507;28;20462;-67
2021/04/20 08:43:36;;;;;;;34.03;25.97;;;;;;;;;;5075655;28;20425;-68
2021/04/20 08:46:05;;;;;;;35.00;24.70;;;;;;;;;;5075524;28;20538;-68
2021/04/20 08:48:37;;;;;;;37.00;28.07;;;;;;;;;;5075207;28;20445;-67
2021/04/20 08:51:07;;;;;;;39.30;28.73;;;;;;;;;;5076706;28;20428;-68
2021/04/20 08:53:37;;;;;;;37.40;27.73;;;;;;;;;;5075717;28;20850;-67
2021/04/20 08:56:09;;;;;;;37.00;28.40;;;;;;;;;;5075055;28;20440;-67
2021/04/20 08:58:56;;;;;;;34.93;25.47;;;;;;;;;;5075972;28;20507;-68
2021/04/20 09:01:29;;;;;;;34.03;27.70;;;;;;;;;;5075332;28;20441;-67
2021/04/20 09:04:02;;;;;;;33.13;24.93;;;;;;;;;;5075325;28;20980;-68
2021/04/20 09:06:31;;;;;;;31.57;23.90;;;;;;;;;;5075769;28;20432;-67
2021/04/20 09:09:01;;;;;;;32.13;23.13;;;;;;;;;;5074613;28;20579;-68
2021/04/20 09:11:31;;;;;;;36.40;24.67;;;;;;;;;;5075655;28;20543;-67
2021/04/20 09:14:00;;;;;;;32.13;25.73;;;;;;;;;;5075036;28;20471;-68
2021/04/20 09:16:35;;;;;;;34.77;25.20;;;;;;;;;;5075153;28;20567;-68
2021/04/20 09:19:02;;;;;;;37.70;23.20;;;;;;;;;;5075361;28;20428;-68
2021/04/20 09:21:32;;;;;;;32.20;25.13;;;;;;;;;;5075204;28;20436;-67
2021/04/20 09:24:11;;;;;;;32.93;24.93;;;;;;;;;;5075152;28;20483;-68
2021/04/20 09:26:41;;;;;;;29.73;23.40;;;;;;;;;;5075537;28;20448;-69
2021/04/20 09:29:12;;;;;;;32.77;24.43;;;;;;;;;;5075061;28;20868;-68
2021/04/20 09:31:41;;;;;;;28.10;21.77;;;;;;;;;;5075168;28;20483;-68
2021/04/20 09:34:09;;;;;;;28.30;22.23;;;;;;;;;;5075321;28;20565;-68
2021/04/20 09:36:37;;;;;;;26.77;21.50;;;;;;;;;;5074865;28;20476;-68
2021/04/20 09:39:05;;;;;;;30.63;22.60;;;;;;;;;;5075422;28;20812;-68
2021/04/20 09:41:35;;;;;;;31.50;23.67;;;;;;;;;;5074460;28;20487;-68
2021/04/20 09:44:07;;;;;;;26.83;20.87;;;;;;;;;;5072881;28;20521;-67
2021/04/20 09:46:35;;;;;;;26.07;21.67;;;;;;;;;;5074645;28;20476;-68
2021/04/20 09:49:09;;;;;;;27.40;21.40;;;;;;;;;;5074098;28;21095;-68
2021/04/20 09:51:40;;;;;;;26.40;21.17;;;;;;;;;;5075018;28;20425;-68
2021/04/20 09:54:10;;;;;;;27.50;21.27;;;;;;;;;;5075093;28;20846;-68
2021/04/20 09:56:39;;;;;;;27.60;23.40;;;;;;;;;;5074308;28;21001;-68
2021/04/20 09:59:08;;;;;;;24.17;20.90;;;;;;;;;;5074444;28;20447;-68
2021/04/20 10:01:46;;;;;;;25.77;21.13;;;;;;;;;;5073948;28;21002;-68
2021/04/20 10:04:18;;;;;;;27.63;22.27;;;;;;;;;;5074105;28;20470;-68
2021/04/20 10:07:01;;;;;;;24.40;20.57;;;;;;;;;;5074838;28;20818;-68
2021/04/20 10:09:32;;;;;;;30.07;22.50;;;;;;;;;;5074199;28;20528;-68
2021/04/20 10:12:06;;;;;;;27.87;23.37;;;;;;;;;;5074122;28;20452;-68
2021/04/20 10:14:41;;;;;;;30.60;23.30;;;;;;;;;;5074480;28;20429;-68
2021/04/20 10:17:14;;;;;;;26.93;23.30;;;;;;;;;;5073668;28;20468;-68
2021/04/20 10:19:43;;;;;;;31.07;24.50;;;;;;;;;;5074396;28;20425;-68
2021/04/20 10:22:19;;;;;;;29.47;24.37;;;;;;;;;;5073628;28;20451;-68
2021/04/20 10:24:49;;;;;;;26.43;22.40;;;;;;;;;;5073638;28;20914;-68
2021/04/20 10:27:19;;;;;;;27.13;22.93;;;;;;;;;;5073623;28;20934;-68
2021/04/20 10:29:50;;;;;;;31.87;24.10;;;;;;;;;;5074077;28;20446;-69
2021/04/20 10:32:21;;;;;;;27.10;23.73;;;;;;;;;;5074622;28;20436;-68
2021/04/20 10:34:50;;;;;;;33.47;25.03;;;;;;;;;;5074112;28;20865;-68
2021/04/20 10:37:17;;;;;;;31.20;26.40;;;;;;;;;;5073694;28;20833;-68
2021/04/20 10:39:46;;;;;;;35.77;26.27;;;;;;;;;;5074032;28;20429;-68
2021/04/20 10:42:14;;;;;;;32.00;25.30;;;;;;;;;;5073371;28;20543;-68
2021/04/20 10:44:43;;;;;;;36.40;28.60;;;;;;;;;;5073679;28;20465;-68
2021/04/20 10:47:10;;;;;;;32.67;26.00;;;;;;;;;;5074224;28;20516;-68
2021/04/20 10:49:38;;;;;;;38.90;28.70;;;;;;;;;;5074027;28;20547;-68
2021/04/20 10:52:09;;;;;;;35.03;28.97;;;;;;;;;;5073587;28;20472;-69
2021/04/20 10:54:38;;;;;;;33.47;27.50;;;;;;;;;;5073749;28;20844;-68
2021/04/20 10:57:06;;;;;;;38.07;29.00;;;;;;;;;;5073048;28;20923;-68
2021/04/20 10:59:34;;;;;;;35.97;27.67;;;;;;;;;;5073265;28;20437;-69
2021/04/20 11:02:02;;;;;;;37.10;26.73;;;;;;;;;;5073171;28;20536;-69
2021/04/20 11:04:31;;;;;;;36.53;26.10;;;;;;;;;;5073354;28;20448;-70
2021/04/20 11:07:17;;;;;;;36.03;26.40;;;;;;;;;;5073441;28;20994;-69
2021/04/20 11:09:44;;;;;;;34.27;27.30;;;;;;;;;;5073134;28;20430;-69
2021/04/20 11:12:15;;;;;;;36.70;27.90;;;;;;;;;;5073011;28;20859;-69
2021/04/20 11:14:43;;;;;;;39.57;29.37;;;;;;;;;;5073312;28;20814;-69
2021/04/20 11:17:13;;;;;;;32.67;27.60;;;;;;;;;;5073067;28;20512;-68
2021/04/20 11:19:43;;;;;;;35.00;29.10;;;;;;;;;;5073284;28;20445;-68
2021/04/20 11:22:13;;;;;;;32.03;26.40;;;;;;;;;;5073247;28;20543;-69
2021/04/20 11:24:42;;;;;;;36.23;28.60;;;;;;;;;;5073043;28;20959;-69
2021/04/20 11:27:11;;;;;;;37.43;28.20;;;;;;;;;;5073695;28;20445;-69
2021/04/20 11:29:43;;;;;;;32.50;27.47;;;;;;;;;;5075226;28;20472;-69
2021/04/20 11:32:12;;;;;;;36.30;28.50;;;;;;;;;;5076721;28;20509;-69
2021/04/20 11:34:40;;;;;;;36.20;29.50;;;;;;;;;;5077490;28;20437;-69
2021/04/20 11:37:09;;;;;;;34.47;28.03;;;;;;;;;;5077096;28;20472;-69
2021/04/20 11:39:36;;;;;;;38.63;28.40;;;;;;;;;;5077147;28;20444;-69
2021/04/20 11:42:06;;;;;;;30.30;26.17;;;;;;;;;;5077329;28;20536;-68
2021/04/20 11:44:37;;;;;;;36.30;29.03;;;;;;;;;;5076917;28;20440;-68
2021/04/20 11:47:05;;;;;;;37.40;29.03;;;;;;;;;;5076689;28;20535;-68
2021/04/20 11:49:33;;;;;;;33.47;26.47;;;;;;;;;;5077530;28;20473;-68
2021/04/20 11:52:00;;;;;;;35.70;28.70;;;;;;;;;;5076644;28;20527;-69
2021/04/20 11:54:28;;;;;;;38.33;28.40;;;;;;;;;;5076753;28;20448;-68
2021/04/20 11:57:00;;;;;;;32.20;28.70;;;;;;;;;;5076324;28;20483;-68
2021/04/20 11:59:28;;;;;;;33.43;27.10;;;;;;;;;;5077143;28;20444;-68
2021/04/20 12:01:55;;;;;;;35.60;27.63;;;;;;;;;;5076696;28;20471;-69
2021/04/20 12:04:24;;;;;;;36.20;28.50;;;;;;;;;;5076519;28;20523;-68
2021/04/20 12:06:51;;;;;;;32.47;26.50;;;;;;;;;;5076526;28;20536;-69
2021/04/20 12:09:20;;;;;;;32.40;26.20;;;;;;;;;;5076159;28;20456;-69
2021/04/20 12:11:47;;;;;;;32.50;26.00;;;;;;;;;;5076676;28;20498;-69
2021/04/20 12:14:17;;;;;;;27.70;24.17;;;;;;;;;;5076014;28;20443;-69
2021/04/20 12:16:45;;;;;;;35.07;25.63;;;;;;;;;;5076177;28;20476;-69
2021/04/20 12:19:14;;;;;;;28.87;25.20;;;;;;;;;;5076248;28;20562;-69
2021/04/20 12:21:41;;;;;;;28.70;25.20;;;;;;;;;;5076195;28;20849;-69
2021/04/20 12:24:09;;;;;;;27.80;24.80;;;;;;;;;;5076034;28;21005;-69
2021/04/20 12:26:36;;;;;;;28.90;24.40;;;;;;;;;;5076061;28;20445;-69
2021/04/20 12:29:05;;;;;;;28.73;24.43;;;;;;;;;;5076149;28;20442;-69
2021/04/20 12:31:32;;;;;;;32.20;26.83;;;;;;;;;;5076163;28;20443;-69
2021/04/20 12:34:00;;;;;;;30.40;24.93;;;;;;;;;;5076028;28;20469;-69
2021/04/20 12:36:29;;;;;;;33.80;28.10;;;;;;;;;;5075582;28;20535;-69
2021/04/20 12:38:58;;;;;;;32.40;26.77;;;;;;;;;;5076006;28;20564;-69
2021/04/20 12:41:28;;;;;;;29.33;26.17;;;;;;;;;;5075975;28;20452;-68
2021/04/20 12:43:57;;;;;;;33.00;28.40;;;;;;;;;;5074064;28;20952;-68
2021/04/20 12:46:24;;;;;;;31.30;26.97;;;;;;;;;;5075429;28;20920;-67
2021/04/20 12:48:54;;;;;;;34.23;27.90;;;;;;;;;;5075370;28;20974;-71
2021/04/20 12:51:24;;;;;;;37.77;27.30;;;;;;;;;;5075713;28;20497;-71
2021/04/20 12:53:52;;;;;;;35.07;27.73;;;;;;;;;;5075563;28;20446;-71
2021/04/20 12:56:22;;;;;;;30.07;25.90;;;;;;;;;;5075424;28;20440;-74
2021/04/20 12:58:51;;;;;;;31.90;26.03;;;;;;;;;;5075500;28;20885;-71
2021/04/20 13:01:20;;;;;;;33.60;26.73;;;;;;;;;;5075107;28;20439;-71
2021/04/20 13:03:48;;;;;;;27.37;24.30;;;;;;;;;;5075944;28;20855;-70
2021/04/20 13:06:16;;;;;;;33.17;24.57;;;;;;;;;;5074909;28;20517;-71
2021/04/20 13:08:45;;;;;;;32.17;23.23;;;;;;;;;;5069591;28;20899;-70
2021/04/20 13:11:34;;;;;;;27.33;24.10;;;;;;;;;;5063567;28;20504;-70
2021/04/20 13:14:01;;;;;;;28.27;23.40;;;;;;;;;;5051845;28;20454;-71
2021/04/20 13:16:29;;;;;;;28.10;23.30;;;;;;;;;;5055182;28;20450;-71
2021/04/20 13:18:57;;;;;;;25.67;21.80;;;;;;;;;;5055144;28;20846;-70
2021/04/20 13:21:26;;;;;;;31.77;25.83;;;;;;;;;;5055076;28;20544;-71
2021/04/20 13:23:54;;;;;;;28.43;25.33;;;;;;;;;;5054811;28;20923;-70
2021/04/20 13:26:23;;;;;;;32.20;26.60;;;;;;;;;;5055199;28;20446;-72
2021/04/20 13:28:50;;;;;;;30.77;25.77;;;;;;;;;;5055076;28;20808;-72
2021/04/20 13:31:18;;;;;;;35.57;29.87;;;;;;;;;;5054821;28;20529;-71
2021/04/20 13:33:46;;;;;;;31.97;26.27;;;;;;;;;;5054899;28;20465;-71
2021/04/20 13:36:14;;;;;;;38.77;29.57;;;;;;;;;;5054534;28;20870;-71
2021/04/20 13:38:49;;;;;;;32.40;27.70;;;;;;;;;;5054681;28;20561;-72
2021/04/20 13:41:17;;;;;;;36.13;28.57;;;;;;;;;;5055194;28;20529;-71
2021/04/20 13:43:46;;;;;;;36.20;28.50;;;;;;;;;;5054331;28;20446;-71
2021/04/20 13:46:13;;;;;;;36.90;27.17;;;;;;;;;;5054597;28;20927;-71
2021/04/20 13:48:39;;;;;;;32.23;25.40;;;;;;;;;;5054383;28;20548;-69
2021/04/20 13:51:06;;;;;;;32.43;27.50;;;;;;;;;;5054954;28;20426;-69
2021/04/20 13:53:34;;;;;;;28.53;23.87;;;;;;;;;;5054031;28;20643;-69
2021/04/20 13:56:06;;;;;;;33.57;24.27;;;;;;;;;;5053861;28;20525;-69
2021/04/20 13:58:41;;;;;;;27.00;23.00;;;;;;;;;;5054099;28;20520;-69
2021/04/20 14:01:08;;;;;;;28.93;23.83;;;;;;;;;;5054171;28;20783;-69
2021/04/20 14:03:41;;;;;;;26.23;21.83;;;;;;;;;;5054554;28;20453;-69
2021/04/20 14:06:10;;;;;;;24.73;21.30;;;;;;;;;;5054491;28;20512;-70
2021/04/20 14:08:38;;;;;;;26.63;22.80;;;;;;;;;;5054013;28;20433;-70
2021/04/20 14:11:05;;;;;;;26.47;20.90;;;;;;;;;;5054718;28;20445;-69
2021/04/20 14:13:35;;;;;;;26.87;19.30;;;;;;;;;;5054060;28;20438;-71
2021/04/20 14:16:04;;;;;;;29.97;20.20;;;;;;;;;;5054744;28;20457;-70
2021/04/20 14:18:31;;;;;;;24.70;20.87;;;;;;;;;;5053884;28;20490;-70
2021/04/20 14:21:09;;;;;;;22.97;20.23;;;;;;;;;;5053607;28;20528;-70
2021/04/20 14:23:37;;;;;;;25.40;20.63;;;;;;;;;;5054150;28;20564;-70
2021/04/20 14:26:04;;;;;;;25.63;21.27;;;;;;;;;;5053499;28;20429;-70